LFAT Airport Information

Runway Information
Runway 13 Length 6070 ft width 131 ft Elevation 19 ft Threshold N/A Heading 133
Runway 31 Length 6070 ft Width 131 ft Elevation 16 ft Threshold 492 ft Heading 313
Runway 06 Length 0 ft width 0 ft Elevation 36 ft Threshold N/A Heading 0
Runway 24 Length 0 ft Width 0 ft Elevation 16 ft Threshold N/A Heading 0
Airport Frequencies
Type APP Name LILLE APP Frequency 120.275 MHZ
Type ATIS Name ATIS Frequency 123.125 MHZ
Type GND Name GND Frequency 125.3 MHZ
Type TWR Name TWR Frequency 118.45 MHZ
Airport Navaids
Airport Weather Information & NOTAM
ADDS - METARS form results

(0246 UTC 12 August 2022)
Data provider http://aviationweather.gov/metar/data/
 
METAR text: LFAT 120230Z AUTO 07008KT CAVOK 23/11 Q1017
Conditions at: LFAT (LE TOUQUET/P. PL, FR) observed 0230 UTC 12 August 2022
Temperature: 23.0°C (73°F)
Dewpoint: 11.0°C (52°F) [RH = 47%]
Pressure (altimeter): 30.03 inches Hg (1017.0 mb)
Winds: from the ENE (70 degrees) at 9 MPH (8 knots; 4.1 m/s)
Visibility: 6 or more miles (10+ km)
Ceiling: ceiling and visibility are OK
Clouds: unknown
Weather: no significant weather observed at this time

METAR text: LFAT 120200Z AUTO 11005KT 070V150 CAVOK 21/11 Q1017
Conditions at: LFAT (LE TOUQUET/P. PL, FR) observed 0200 UTC 12 August 2022
Temperature: 21.0°C (70°F)
Dewpoint: 11.0°C (52°F) [RH = 53%]
Pressure (altimeter): 30.03 inches Hg (1017.0 mb)
Winds: from the ESE (110 degrees) at 6 MPH (5 knots; 2.6 m/s)
Visibility: 6 or more miles (10+ km)
Ceiling: ceiling and visibility are OK
Clouds: unknown
Weather: no significant weather observed at this time

Forecast for: AMD
Text: TAF AMD LFAT 111611Z 1116/1124 03013KT CAVOK
Forecast period: 1600 UTC 11 August 2022 to 0000 UTC 12 August 2022
Forecast type: FROM: standard forecast or significant change
Winds: from the NNE (30 degrees) at 15 MPH (13 knots; 6.7 m/s)
Visibility: 6 or more miles (10+ km)
Ceiling: unknown
Clouds: missing
Weather: NSW  (no significant weather)